createdAt,value
2023-04-10T00:00:12.586Z,100.00
2023-04-10T00:02:39.392Z,100.00
2023-04-10T00:05:07.444Z,100.00
2023-04-10T00:07:34.293Z,100.00
2023-04-10T00:10:01.024Z,100.00
2023-04-10T00:12:27.788Z,100.00
2023-04-10T00:14:56.002Z,100.00
2023-04-10T00:17:22.789Z,100.00
2023-04-10T00:19:49.603Z,100.00
2023-04-10T00:22:16.384Z,100.00
2023-04-10T00:24:43.114Z,100.00
2023-04-10T00:27:09.910Z,100.00
2023-04-10T00:29:36.666Z,100.00
2023-04-10T00:32:04.810Z,100.00
2023-04-10T00:34:32.129Z,100.00
2023-04-10T00:36:59.199Z,100.00
2023-04-10T00:39:25.996Z,100.00
2023-04-10T00:41:52.778Z,100.00
2023-04-10T00:44:19.574Z,100.00
2023-04-10T00:46:46.457Z,100.00
2023-04-10T00:49:14.964Z,100.00
2023-04-10T00:51:41.703Z,100.00
2023-04-10T00:54:09.396Z,100.00
2023-04-10T00:56:37.248Z,100.00
2023-04-10T00:59:06.539Z,100.00
2023-04-10T01:01:34.135Z,100.00
2023-04-10T01:04:01.323Z,100.00
2023-04-10T01:06:41.810Z,100.00
2023-04-10T01:09:17.565Z,100.00
2023-04-10T01:11:51.174Z,100.00
2023-04-10T01:14:27.851Z,100.00
2023-04-10T01:17:01.142Z,100.00
2023-04-10T01:19:44.247Z,100.00
2023-04-10T01:22:16.433Z,100.00
2023-04-10T01:24:59.424Z,100.00
2023-04-10T01:27:40.065Z,100.00
2023-04-10T01:30:14.717Z,100.00
2023-04-10T01:32:41.917Z,100.00
2023-04-10T01:35:10.288Z,100.00
2023-04-10T01:37:41.893Z,100.00
2023-04-10T01:40:11.410Z,100.00
2023-04-10T01:42:44.928Z,100.00
2023-04-10T01:45:17.221Z,100.00
2023-04-10T01:47:44.395Z,100.00
2023-04-10T01:50:12.106Z,100.00
2023-04-10T01:52:39.880Z,100.00
2023-04-10T01:55:08.830Z,100.00
2023-04-10T01:57:35.727Z,100.00
2023-04-10T02:00:02.733Z,100.00
2023-04-10T02:02:32.490Z,100.00
2023-04-10T02:04:59.564Z,100.00
2023-04-10T02:07:31.016Z,100.00
2023-04-10T02:10:02.393Z,100.00
2023-04-10T02:12:31.846Z,100.00
2023-04-10T02:15:01.535Z,100.00
2023-04-10T02:17:30.070Z,100.00
2023-04-10T02:19:59.556Z,100.00
2023-04-10T02:22:27.646Z,100.00
2023-04-10T02:24:54.607Z,100.00
2023-04-10T02:27:28.428Z,100.00
2023-04-10T02:29:55.192Z,100.00
2023-04-10T02:32:22.018Z,100.00
2023-04-10T02:34:48.827Z,100.00
2023-04-10T02:37:17.354Z,100.00
2023-04-10T02:39:44.127Z,100.00
2023-04-10T02:42:10.958Z,100.00
2023-04-10T02:44:37.725Z,100.00
2023-04-10T02:47:04.511Z,100.00
2023-04-10T02:49:31.303Z,100.00
2023-04-10T02:51:58.120Z,100.00
2023-04-10T02:54:26.407Z,100.00
2023-04-10T02:56:53.317Z,100.00
2023-04-10T02:59:20.560Z,100.00
2023-04-10T03:01:47.480Z,100.00
2023-04-10T03:04:14.365Z,100.00
2023-04-10T03:06:41.228Z,100.00
2023-04-10T03:09:08.018Z,100.00
2023-04-10T03:11:36.142Z,100.00
2023-04-10T03:14:02.858Z,100.00
2023-04-10T03:16:29.646Z,100.00
2023-04-10T03:18:56.761Z,100.00
2023-04-10T03:21:23.606Z,100.00
2023-04-10T03:23:50.344Z,100.00
2023-04-10T03:26:17.080Z,100.00
2023-04-10T03:28:45.168Z,100.00
2023-04-10T03:31:11.928Z,100.00
2023-04-10T03:33:38.777Z,100.00
2023-04-10T03:36:06.240Z,100.00
2023-04-10T03:38:33.051Z,100.00
2023-04-10T03:40:59.832Z,100.00
2023-04-10T03:43:26.564Z,100.00
2023-04-10T03:45:54.714Z,100.00
2023-04-10T03:48:21.441Z,100.00
2023-04-10T03:50:48.281Z,100.00
2023-04-10T03:53:15.062Z,100.00
2023-04-10T03:55:41.845Z,100.00
2023-04-10T03:58:08.595Z,100.00
2023-04-10T04:00:35.378Z,100.00
2023-04-10T04:03:03.931Z,100.00
2023-04-10T04:05:30.856Z,100.00
2023-04-10T04:07:57.924Z,100.00
2023-04-10T04:10:24.700Z,100.00
2023-04-10T04:12:51.488Z,100.00
2023-04-10T04:15:18.324Z,100.00
2023-04-10T04:17:45.051Z,100.00
2023-04-10T04:20:13.382Z,100.00
2023-04-10T04:22:40.101Z,100.00
2023-04-10T04:25:07.540Z,100.00
2023-04-10T04:27:34.302Z,100.00
2023-04-10T04:30:01.008Z,100.00
2023-04-10T04:32:27.785Z,100.00
2023-04-10T04:34:54.630Z,100.00
2023-04-10T04:37:22.775Z,100.00
2023-04-10T04:39:49.533Z,100.00
2023-04-10T04:42:16.249Z,100.00
2023-04-10T04:44:43.000Z,100.00
2023-04-10T04:47:09.751Z,100.00
2023-04-10T04:49:36.528Z,100.00
2023-04-10T04:52:03.264Z,100.00
2023-04-10T04:54:31.482Z,100.00
2023-04-10T04:56:58.269Z,100.00
2023-04-10T04:59:24.984Z,100.00
2023-04-10T05:01:51.930Z,100.00
2023-04-10T05:04:19.024Z,100.00
2023-04-10T05:06:45.949Z,100.00
2023-04-10T05:09:12.700Z,100.00
2023-04-10T05:11:40.919Z,100.00
2023-04-10T05:14:07.676Z,100.00
2023-04-10T05:16:34.432Z,100.00
2023-04-10T05:19:01.188Z,100.00
2023-04-10T05:21:27.916Z,100.00
2023-04-10T05:23:54.719Z,100.00
2023-04-10T05:26:21.489Z,100.00
2023-04-10T05:28:49.615Z,100.00
2023-04-10T05:31:16.411Z,100.00
2023-04-10T05:33:43.160Z,100.00
2023-04-10T05:36:11.070Z,100.00
2023-04-10T05:38:37.868Z,100.00
2023-04-10T05:41:04.832Z,100.00
2023-04-10T05:43:31.588Z,100.00
2023-04-10T05:45:59.821Z,100.00
2023-04-10T05:48:26.666Z,100.00
2023-04-10T05:50:53.384Z,100.00
2023-04-10T05:53:20.813Z,100.00
2023-04-10T05:55:50.054Z,100.00
2023-04-10T05:58:16.937Z,100.00
2023-04-10T06:00:43.762Z,100.00
2023-04-10T06:03:11.971Z,100.00
2023-04-10T06:05:38.841Z,100.00
2023-04-10T06:08:05.607Z,100.00
2023-04-10T06:10:32.320Z,100.00
2023-04-10T06:12:59.061Z,100.00
2023-04-10T06:15:25.831Z,100.00
2023-04-10T06:17:52.606Z,100.00
2023-04-10T06:20:21.087Z,100.00
2023-04-10T06:22:47.782Z,100.00
2023-04-10T06:25:14.548Z,100.00
2023-04-10T06:27:41.315Z,100.00
2023-04-10T06:30:09.550Z,100.00
2023-04-10T06:32:36.440Z,100.00
2023-04-10T06:35:03.214Z,100.00
2023-04-10T06:37:31.679Z,100.00
2023-04-10T06:40:05.863Z,100.00
2023-04-10T06:42:32.375Z,100.00
2023-04-10T06:44:59.255Z,100.00
2023-04-10T06:47:26.163Z,100.00
2023-04-10T06:49:53.017Z,100.00
2023-04-10T06:52:19.908Z,100.00
2023-04-10T06:54:48.048Z,100.00
2023-04-10T06:57:14.964Z,100.00
2023-04-10T06:59:42.051Z,99.53
2023-04-10T07:02:08.950Z,98.97
2023-04-10T07:04:35.927Z,96.12
2023-04-10T07:07:02.693Z,96.14
2023-04-10T07:09:30.315Z,95.91
2023-04-10T07:11:58.501Z,98.65
2023-04-10T07:14:25.231Z,99.29
2023-04-10T07:16:52.128Z,97.71
2023-04-10T07:19:18.897Z,98.12
2023-04-10T07:21:45.699Z,98.03
2023-04-10T07:24:12.420Z,96.55
2023-04-10T07:26:39.157Z,97.00
2023-04-10T07:29:07.366Z,97.11
2023-04-10T07:31:34.139Z,96.40
2023-04-10T07:34:01.906Z,95.92
2023-04-10T07:36:28.782Z,95.00
2023-04-10T07:38:55.746Z,96.53
2023-04-10T07:41:22.786Z,96.74
2023-04-10T07:43:49.632Z,96.15
2023-04-10T07:46:18.057Z,94.48
2023-04-10T07:48:44.919Z,87.94
2023-04-10T07:51:11.749Z,86.01
2023-04-10T07:53:38.742Z,84.34
2023-04-10T07:56:06.500Z,85.39
2023-04-10T07:58:33.426Z,84.10
2023-04-10T08:01:00.315Z,80.90
2023-04-10T08:03:28.574Z,80.51
2023-04-10T08:05:55.403Z,76.69
2023-04-10T08:08:22.181Z,75.09
2023-04-10T08:10:49.307Z,72.60
2023-04-10T08:13:16.087Z,73.62
2023-04-10T08:15:42.868Z,70.62
2023-04-10T08:18:09.630Z,70.77
2023-04-10T08:20:37.836Z,67.70
2023-04-10T08:23:17.113Z,67.70
2023-04-10T08:25:46.896Z,64.99
2023-04-10T08:28:13.615Z,64.03
2023-04-10T08:30:40.416Z,64.02
2023-04-10T08:33:07.510Z,62.63
2023-04-10T08:35:34.289Z,60.35
2023-04-10T08:38:13.397Z,60.24
2023-04-10T08:40:41.394Z,62.79
2023-04-10T08:43:08.233Z,58.81
2023-04-10T08:45:35.120Z,52.06
2023-04-10T08:48:05.399Z,50.73
2023-04-10T08:50:34.746Z,55.47
2023-04-10T08:53:08.529Z,52.62
2023-04-10T08:55:35.397Z,55.50
2023-04-10T08:58:02.660Z,53.79
2023-04-10T09:00:29.789Z,54.63
2023-04-10T09:02:56.701Z,55.94
2023-04-10T09:05:25.075Z,56.87
2023-04-10T09:07:51.881Z,54.66
2023-04-10T09:10:20.019Z,52.29
2023-04-10T09:12:47.960Z,53.35
2023-04-10T09:15:15.877Z,52.32
2023-04-10T09:17:58.502Z,50.83
2023-04-10T09:20:27.106Z,50.67
2023-04-10T09:22:53.975Z,50.57
2023-04-10T09:25:31.368Z,49.73
2023-04-10T09:28:03.550Z,48.49
2023-04-10T09:30:35.048Z,49.73
2023-04-10T09:33:03.537Z,48.56
2023-04-10T09:35:38.490Z,46.36
2023-04-10T09:38:15.837Z,42.68
2023-04-10T09:40:44.374Z,45.26
2023-04-10T09:43:18.934Z,44.17
2023-04-10T09:45:50.743Z,47.07
2023-04-10T09:48:18.371Z,45.07
2023-04-10T09:50:45.567Z,42.35
2023-04-10T09:53:14.071Z,42.44
2023-04-10T09:55:41.655Z,41.38
2023-04-10T09:58:10.388Z,40.56
2023-04-10T10:00:40.952Z,40.18
2023-04-10T10:03:09.995Z,41.05
2023-04-10T10:05:39.842Z,41.13
2023-04-10T10:08:07.709Z,43.42
2023-04-10T10:10:35.040Z,42.96
2023-04-10T10:13:03.123Z,42.06
2023-04-10T10:15:42.408Z,41.16
2023-04-10T10:18:16.284Z,42.33
2023-04-10T10:20:45.368Z,44.94
2023-04-10T10:23:13.454Z,45.21
2023-04-10T10:25:40.835Z,43.07
2023-04-10T10:28:09.913Z,43.24
2023-04-10T10:30:38.682Z,43.92
2023-04-10T10:33:07.423Z,41.46
2023-04-10T10:35:35.594Z,44.35
2023-04-10T10:38:04.212Z,43.60
2023-04-10T10:40:33.724Z,42.67
2023-04-10T10:43:12.066Z,44.04
2023-04-10T10:45:48.069Z,43.08
2023-04-10T10:48:14.939Z,42.91
2023-04-10T10:50:52.893Z,42.30
2023-04-10T10:53:39.181Z,44.23
2023-04-10T10:56:33.628Z,44.84
2023-04-10T10:59:00.428Z,44.78
2023-04-10T11:01:28.659Z,43.73
2023-04-10T11:03:55.728Z,44.98
2023-04-10T11:06:49.096Z,42.81
2023-04-10T11:09:50.726Z,43.56
2023-04-10T11:12:21.382Z,43.20
2023-04-10T11:14:57.907Z,41.37
2023-04-10T11:17:47.939Z,41.74
2023-04-10T11:20:15.107Z,42.27
2023-04-10T11:23:09.616Z,41.25
2023-04-10T11:25:50.875Z,40.74
2023-04-10T11:28:39.414Z,39.90
2023-04-10T11:31:17.326Z,41.80
2023-04-10T11:33:45.965Z,39.24
2023-04-10T11:36:15.148Z,41.14
2023-04-10T11:38:53.362Z,40.81
2023-04-10T11:41:20.282Z,43.02
2023-04-10T11:43:51.529Z,41.76
2023-04-10T11:46:18.551Z,42.74
2023-04-10T11:48:46.842Z,40.32
2023-04-10T11:51:14.445Z,41.25
2023-04-10T11:53:41.872Z,42.70
2023-04-10T11:56:16.298Z,41.51
2023-04-10T11:58:43.179Z,39.75
2023-04-10T12:01:09.900Z,40.87
2023-04-10T12:03:38.824Z,40.73
2023-04-10T12:06:10.125Z,40.61
2023-04-10T12:08:38.809Z,41.76
2023-04-10T12:11:06.257Z,42.58
2023-04-10T12:13:33.312Z,40.09
2023-04-10T12:16:02.347Z,41.17
2023-04-10T12:18:29.824Z,40.80
2023-04-10T12:20:58.559Z,39.42
2023-04-10T12:23:28.551Z,38.34
2023-04-10T12:26:10.499Z,39.53
2023-04-10T12:28:38.178Z,41.19
2023-04-10T12:31:05.844Z,40.72
2023-04-10T12:33:32.688Z,40.56
2023-04-10T12:35:59.476Z,41.08
2023-04-10T12:38:41.911Z,39.72
2023-04-10T12:41:09.677Z,40.50
2023-04-10T12:43:38.767Z,40.87
2023-04-10T12:46:07.140Z,41.55
2023-04-10T12:48:33.912Z,40.65
2023-04-10T12:51:00.986Z,38.94
2023-04-10T12:53:28.075Z,41.51
2023-04-10T12:56:04.440Z,39.35
2023-04-10T12:58:31.613Z,39.74
2023-04-10T13:01:02.374Z,38.68
2023-04-10T13:03:29.384Z,39.03
2023-04-10T13:05:56.501Z,38.72
2023-04-10T13:08:23.356Z,38.26
2023-04-10T13:10:50.088Z,39.69
2023-04-10T13:13:18.814Z,39.03
2023-04-10T13:15:45.545Z,38.91
2023-04-10T13:18:12.415Z,38.67
2023-04-10T13:20:40.365Z,38.29
2023-04-10T13:23:07.193Z,40.31
2023-04-10T13:25:37.458Z,37.24
2023-04-10T13:28:04.228Z,40.12
2023-04-10T13:30:32.393Z,38.30
2023-04-10T13:32:59.261Z,37.24
2023-04-10T13:35:26.118Z,39.20
2023-04-10T13:37:52.899Z,40.80
2023-04-10T13:40:20.027Z,38.43
2023-04-10T13:42:47.024Z,38.68
2023-04-10T13:45:13.852Z,39.19
2023-04-10T13:47:42.541Z,37.82
2023-04-10T13:50:10.164Z,38.23
2023-04-10T13:52:37.237Z,38.69
2023-04-10T13:55:04.551Z,37.55
2023-04-10T13:57:31.341Z,38.27
2023-04-10T13:59:58.174Z,38.62
2023-04-10T14:02:25.174Z,39.51
2023-04-10T14:04:53.450Z,36.66
2023-04-10T14:07:20.219Z,37.43
2023-04-10T14:09:46.992Z,38.65
2023-04-10T14:12:13.924Z,39.71
2023-04-10T14:14:40.649Z,39.72
2023-04-10T14:17:07.358Z,39.24
2023-04-10T14:19:34.993Z,39.94
2023-04-10T14:22:03.224Z,38.93
2023-04-10T14:24:29.987Z,38.74
2023-04-10T14:26:56.961Z,39.02
2023-04-10T14:29:33.100Z,38.71
2023-04-10T14:32:03.114Z,38.64
2023-04-10T14:34:29.881Z,36.56
2023-04-10T14:36:56.622Z,36.83
2023-04-10T14:39:25.446Z,36.18
2023-04-10T14:41:52.286Z,34.98
2023-04-10T14:44:19.089Z,37.59
2023-04-10T14:46:45.831Z,37.10
2023-04-10T14:49:13.702Z,35.08
2023-04-10T14:51:43.230Z,36.44
2023-04-10T14:54:10.065Z,35.77
2023-04-10T14:56:38.214Z,36.57
2023-04-10T14:59:05.036Z,35.44
2023-04-10T15:01:31.808Z,35.61
2023-04-10T15:03:58.787Z,36.84
2023-04-10T15:06:25.716Z,36.97
2023-04-10T15:08:52.505Z,34.86
2023-04-10T15:11:19.324Z,35.83
2023-04-10T15:13:47.546Z,34.50
2023-04-10T15:16:14.381Z,36.64
2023-04-10T15:18:41.172Z,37.07
2023-04-10T15:21:08.031Z,36.84
2023-04-10T15:23:34.761Z,35.74
2023-04-10T15:26:01.541Z,36.58
2023-04-10T15:28:28.364Z,37.23
2023-04-10T15:30:56.563Z,35.51
2023-04-10T15:33:23.560Z,36.41
2023-04-10T15:35:50.640Z,36.31
2023-04-10T15:38:17.532Z,35.79
2023-04-10T15:40:44.367Z,36.08
2023-04-10T15:43:11.122Z,35.03
2023-04-10T15:45:37.900Z,34.48
2023-04-10T15:48:06.383Z,35.82
2023-04-10T15:50:33.270Z,36.20
2023-04-10T15:53:00.089Z,37.39
2023-04-10T15:55:26.868Z,37.20
2023-04-10T15:57:53.679Z,36.20
2023-04-10T16:00:20.643Z,35.39
2023-04-10T16:02:47.695Z,37.17
2023-04-10T16:05:16.170Z,37.96
2023-04-10T16:07:42.895Z,37.02
2023-04-10T16:10:10.121Z,38.63
2023-04-10T16:12:37.386Z,38.12
2023-04-10T16:15:04.799Z,38.21
2023-04-10T16:17:31.616Z,39.04
2023-04-10T16:19:58.579Z,38.98
2023-04-10T16:22:26.899Z,39.03
2023-04-10T16:24:55.805Z,38.93
2023-04-10T16:27:22.808Z,38.66
2023-04-10T16:29:49.586Z,39.22
2023-04-10T16:32:18.868Z,39.36
2023-04-10T16:34:45.926Z,39.54
2023-04-10T16:37:12.891Z,39.38
2023-04-10T16:39:41.038Z,40.76
2023-04-10T16:42:07.830Z,40.53
2023-04-10T16:44:34.602Z,40.20
2023-04-10T16:47:01.508Z,41.12
2023-04-10T16:49:29.248Z,42.37
2023-04-10T16:51:56.084Z,42.84
2023-04-10T16:54:22.906Z,44.36
2023-04-10T16:56:51.072Z,44.22
2023-04-10T16:59:17.875Z,44.80
2023-04-10T17:01:44.642Z,44.77
2023-04-10T17:04:11.469Z,46.28
2023-04-10T17:06:38.280Z,46.79
2023-04-10T17:09:05.080Z,47.75
2023-04-10T17:11:31.837Z,50.01
2023-04-10T17:14:00.013Z,49.98
2023-04-10T17:16:26.917Z,51.62
2023-04-10T17:18:53.953Z,52.91
2023-04-10T17:21:20.827Z,53.56
2023-04-10T17:23:47.592Z,53.84
2023-04-10T17:26:15.856Z,53.49
2023-04-10T17:28:43.420Z,54.27
2023-04-10T17:31:11.828Z,55.42
2023-04-10T17:33:38.758Z,56.26
2023-04-10T17:36:06.248Z,56.98
2023-04-10T17:38:33.105Z,60.45
2023-04-10T17:40:59.809Z,62.70
2023-04-10T17:43:26.621Z,63.20
2023-04-10T17:45:53.367Z,63.26
2023-04-10T17:48:21.651Z,60.17
2023-04-10T17:50:48.470Z,62.14
2023-04-10T17:53:15.267Z,62.87
2023-04-10T17:55:42.020Z,62.18
2023-04-10T17:58:08.757Z,61.87
2023-04-10T18:00:35.481Z,62.13
2023-04-10T18:03:02.498Z,62.75
2023-04-10T18:05:30.825Z,62.89
2023-04-10T18:07:57.636Z,63.99
2023-04-10T18:10:24.493Z,63.09
2023-04-10T18:12:51.335Z,64.05
2023-04-10T18:15:18.382Z,65.58
2023-04-10T18:17:45.175Z,65.61
2023-04-10T18:20:11.944Z,64.69
2023-04-10T18:22:40.175Z,61.39
2023-04-10T18:25:08.170Z,61.96
2023-04-10T18:27:34.934Z,62.44
2023-04-10T18:30:02.110Z,64.03
2023-04-10T18:32:28.858Z,67.13
2023-04-10T18:34:55.785Z,66.49
2023-04-10T18:37:22.661Z,65.72
2023-04-10T18:39:50.852Z,65.16
2023-04-10T18:42:17.618Z,65.33
2023-04-10T18:44:44.340Z,65.00
2023-04-10T18:47:11.323Z,66.14
2023-04-10T18:49:38.276Z,68.15
2023-04-10T18:52:05.140Z,67.13
2023-04-10T18:54:33.156Z,65.30
2023-04-10T18:57:01.501Z,62.25
2023-04-10T18:59:28.557Z,61.87
2023-04-10T19:01:55.541Z,62.56
2023-04-10T19:04:22.912Z,63.99
2023-04-10T19:06:52.763Z,64.03
2023-04-10T19:09:19.532Z,63.61
2023-04-10T19:11:46.352Z,64.63
2023-04-10T19:14:14.512Z,65.30
2023-04-10T19:16:41.331Z,64.54
2023-04-10T19:19:08.131Z,63.84
2023-04-10T19:21:34.887Z,65.48
2023-04-10T19:24:01.686Z,64.17
2023-04-10T19:26:28.567Z,63.83
2023-04-10T19:28:55.530Z,63.77
2023-04-10T19:31:23.944Z,64.51
2023-04-10T19:33:50.823Z,64.91
2023-04-10T19:36:18.250Z,63.21
2023-04-10T19:38:45.160Z,63.44
2023-04-10T19:41:15.250Z,63.27
2023-04-10T19:43:42.348Z,62.86
2023-04-10T19:46:15.865Z,63.34
2023-04-10T19:48:44.051Z,63.14
2023-04-10T19:51:10.845Z,63.96
2023-04-10T19:53:38.080Z,63.58
2023-04-10T19:56:05.229Z,64.24
2023-04-10T19:58:55.663Z,64.21
2023-04-10T20:01:18.696Z,63.64
2023-04-10T20:03:46.991Z,63.79
2023-04-10T20:06:13.892Z,63.64
2023-04-10T20:08:40.747Z,63.90
2023-04-10T20:11:07.549Z,63.97
2023-04-10T20:13:34.260Z,60.80
2023-04-10T20:16:01.055Z,62.66
2023-04-10T20:18:28.019Z,62.82
2023-04-10T20:20:56.224Z,62.56
2023-04-10T20:23:22.942Z,61.49
2023-04-10T20:25:49.689Z,61.64
2023-04-10T20:28:16.532Z,61.19
2023-04-10T20:30:43.473Z,62.14
2023-04-10T20:33:10.311Z,63.19
2023-04-10T20:35:37.056Z,62.04
2023-04-10T20:38:05.231Z,62.26
2023-04-10T20:40:31.990Z,62.74
2023-04-10T20:42:58.771Z,63.24
2023-04-10T20:45:25.513Z,62.20
2023-04-10T20:47:52.303Z,64.31
2023-04-10T20:50:19.277Z,63.45
2023-04-10T20:52:46.045Z,61.69
2023-04-10T20:55:14.246Z,63.68
2023-04-10T20:57:41.030Z,64.93
2023-04-10T21:00:09.203Z,67.96
2023-04-10T21:02:36.095Z,64.61
2023-04-10T21:05:03.024Z,61.40
2023-04-10T21:07:29.948Z,63.43
2023-04-10T21:09:56.716Z,63.63
2023-04-10T21:12:24.832Z,63.21
2023-04-10T21:14:51.635Z,64.06
2023-04-10T21:17:19.085Z,63.67
2023-04-10T21:19:45.940Z,62.11
2023-04-10T21:22:12.818Z,63.25
2023-04-10T21:24:39.710Z,63.99
2023-04-10T21:27:06.555Z,66.08
2023-04-10T21:29:34.669Z,65.60
2023-04-10T21:32:01.515Z,65.93
2023-04-10T21:34:28.314Z,64.10
2023-04-10T21:36:55.025Z,64.90
2023-04-10T21:39:21.813Z,64.27
2023-04-10T21:41:48.555Z,65.58
2023-04-10T21:44:15.363Z,66.00
2023-04-10T21:46:43.541Z,65.60
2023-04-10T21:49:10.358Z,65.53
2023-04-10T21:51:37.234Z,67.33
2023-04-10T21:54:04.112Z,67.41
2023-04-10T21:56:30.869Z,68.19
2023-04-10T21:58:57.659Z,67.49
2023-04-10T22:01:24.386Z,67.60
2023-04-10T22:03:52.694Z,66.46
2023-04-10T22:06:19.622Z,65.71
2023-04-10T22:08:46.388Z,65.76
2023-04-10T22:11:13.308Z,65.86
2023-04-10T22:13:40.067Z,65.74
2023-04-10T22:16:07.145Z,68.82
2023-04-10T22:18:33.863Z,68.77
2023-04-10T22:21:02.001Z,69.85
2023-04-10T22:23:28.731Z,69.67
2023-04-10T22:25:55.571Z,69.27
2023-04-10T22:28:22.425Z,67.94
2023-04-10T22:30:49.152Z,66.59
2023-04-10T22:33:15.945Z,67.00
2023-04-10T22:35:42.892Z,67.07
2023-04-10T22:38:11.046Z,67.31
2023-04-10T22:40:37.880Z,68.23
2023-04-10T22:43:04.593Z,68.71
2023-04-10T22:45:31.302Z,68.58
2023-04-10T22:47:58.122Z,70.02
2023-04-10T22:50:24.952Z,70.45
2023-04-10T22:52:51.641Z,73.75
2023-04-10T22:55:20.144Z,73.12
2023-04-10T22:57:47.533Z,73.47
2023-04-10T23:00:14.873Z,73.41
2023-04-10T23:02:41.684Z,72.92
2023-04-10T23:05:09.266Z,72.47
2023-04-10T23:07:35.985Z,72.72
2023-04-10T23:10:02.753Z,72.25
2023-04-10T23:12:30.967Z,72.30
2023-04-10T23:14:57.918Z,73.07
2023-04-10T23:17:24.841Z,73.67
2023-04-10T23:19:51.612Z,74.05
2023-04-10T23:22:18.419Z,73.33
2023-04-10T23:24:45.256Z,73.22
2023-04-10T23:27:12.102Z,73.45
2023-04-10T23:29:40.308Z,72.76
2023-04-10T23:32:07.033Z,72.62
2023-04-10T23:34:33.854Z,73.10
2023-04-10T23:37:00.607Z,73.21
2023-04-10T23:39:27.382Z,71.99
2023-04-10T23:41:54.204Z,72.45
2023-04-10T23:44:20.992Z,72.82
2023-04-10T23:46:49.713Z,71.49
2023-04-10T23:49:16.859Z,72.14
2023-04-10T23:51:44.688Z,72.46
2023-04-10T23:54:11.790Z,72.50
2023-04-10T23:56:38.625Z,72.28
2023-04-10T23:59:05.419Z,72.90
